Terminal Aerodrome Forecast
Issued by NWS

Home | Current Version | Previous Version | Text Only | Print | Product List | Glossary On
Versions: 1 2 3 4 5 6 7 8 9 10 11 12 13 14 15 16 17 18 19 20 21 22
000
FTUS41 KBGM 242218 AAA
TAFELM
TAF AMD
KELM 242218Z 2422/2518 VRB05KT P6SM SCT025 OVC070
      TEMPO 2422/2424 OVC022
     FM250500 11005KT P6SM OVC025
     FM250700 15010KT 3SM RA BR OVC012 WS020/19050KT
     FM251500 18012G22KT 5SM -SHRA BR OVC015=

USA.gov is the U.S. government's official web portal to all federal, state and local government web resources and services.